sensor_id;sensor_type;location;lat;lon;timestamp;P1;durP1;ratioP1;P2;durP2;ratioP2
13590;SDS011;6866;50.778;7.206;2023-04-01T00:00:32;2.42;;;0.65;;
13590;SDS011;6866;50.778;7.206;2023-04-01T00:02:57;3.53;;;1.13;;
13590;SDS011;6866;50.778;7.206;2023-04-01T00:05:23;2.72;;;0.70;;
13590;SDS011;6866;50.778;7.206;2023-04-01T00:07:52;4.22;;;1.00;;
13590;SDS011;6866;50.778;7.206;2023-04-01T00:10:17;2.70;;;0.90;;
13590;SDS011;6866;50.778;7.206;2023-04-01T00:12:43;3.70;;;0.85;;
13590;SDS011;6866;50.778;7.206;2023-04-01T00:15:10;3.10;;;0.70;;
13590;SDS011;6866;50.778;7.206;2023-04-01T00:17:37;3.92;;;0.90;;
13590;SDS011;6866;50.778;7.206;2023-04-01T00:20:03;2.92;;;0.88;;
13590;SDS011;6866;50.778;7.206;2023-04-01T00:22:29;2.30;;;0.77;;
13590;SDS011;6866;50.778;7.206;2023-04-01T00:24:55;3.10;;;0.77;;
13590;SDS011;6866;50.778;7.206;2023-04-01T00:27:20;3.30;;;0.68;;
13590;SDS011;6866;50.778;7.206;2023-04-01T00:29:46;3.22;;;0.85;;
13590;SDS011;6866;50.778;7.206;2023-04-01T00:32:12;2.88;;;0.80;;
13590;SDS011;6866;50.778;7.206;2023-04-01T00:34:38;2.58;;;1.00;;
13590;SDS011;6866;50.778;7.206;2023-04-01T00:37:05;3.55;;;0.73;;
13590;SDS011;6866;50.778;7.206;2023-04-01T00:39:31;4.10;;;1.58;;
13590;SDS011;6866;50.778;7.206;2023-04-01T00:41:58;2.88;;;1.00;;
13590;SDS011;6866;50.778;7.206;2023-04-01T00:44:25;2.92;;;0.90;;
13590;SDS011;6866;50.778;7.206;2023-04-01T00:46:57;4.05;;;1.38;;
13590;SDS011;6866;50.778;7.206;2023-04-01T00:49:23;3.45;;;0.95;;
13590;SDS011;6866;50.778;7.206;2023-04-01T00:51:54;3.40;;;0.98;;
13590;SDS011;6866;50.778;7.206;2023-04-01T00:54:22;2.53;;;0.70;;
13590;SDS011;6866;50.778;7.206;2023-04-01T00:57:00;2.22;;;0.60;;
13590;SDS011;6866;50.778;7.206;2023-04-01T00:59:34;3.28;;;1.23;;
13590;SDS011;6866;50.778;7.206;2023-04-01T01:04:45;4.03;;;0.93;;
13590;SDS011;6866;50.778;7.206;2023-04-01T01:07:29;3.10;;;0.77;;
13590;SDS011;6866;50.778;7.206;2023-04-01T01:10:16;3.42;;;0.93;;
13590;SDS011;6866;50.778;7.206;2023-04-01T01:13:30;4.40;;;0.95;;
13590;SDS011;6866;50.778;7.206;2023-04-01T01:15:46;2.40;;;0.70;;
13590;SDS011;6866;50.778;7.206;2023-04-01T01:21:27;4.17;;;1.13;;
13590;SDS011;6866;50.778;7.206;2023-04-01T01:24:05;2.45;;;0.70;;
13590;SDS011;6866;50.778;7.206;2023-04-01T01:37:33;1.83;;;0.60;;
13590;SDS011;6866;50.778;7.206;2023-04-01T01:40:01;1.80;;;0.70;;
13590;SDS011;6866;50.778;7.206;2023-04-01T01:42:30;2.85;;;0.50;;
13590;SDS011;6866;50.778;7.206;2023-04-01T01:44:58;2.05;;;0.63;;
13590;SDS011;6866;50.778;7.206;2023-04-01T01:47:25;3.05;;;1.27;;
13590;SDS011;6866;50.778;7.206;2023-04-01T01:49:53;2.63;;;0.90;;
13590;SDS011;6866;50.778;7.206;2023-04-01T01:52:21;3.45;;;0.85;;
13590;SDS011;6866;50.778;7.206;2023-04-01T01:54:48;1.48;;;0.60;;
13590;SDS011;6866;50.778;7.206;2023-04-01T01:57:14;2.90;;;0.60;;
13590;SDS011;6866;50.778;7.206;2023-04-01T01:59:41;2.72;;;0.75;;
13590;SDS011;6866;50.778;7.206;2023-04-01T02:02:10;1.73;;;0.60;;
13590;SDS011;6866;50.778;7.206;2023-04-01T02:04:39;2.50;;;0.70;;
13590;SDS011;6866;50.778;7.206;2023-04-01T02:07:10;4.03;;;0.70;;
13590;SDS011;6866;50.778;7.206;2023-04-01T02:09:41;3.03;;;0.77;;
13590;SDS011;6866;50.778;7.206;2023-04-01T02:12:08;3.72;;;1.10;;
13590;SDS011;6866;50.778;7.206;2023-04-01T02:17:17;2.70;;;0.52;;
13590;SDS011;6866;50.778;7.206;2023-04-01T02:19:49;3.10;;;0.63;;
13590;SDS011;6866;50.778;7.206;2023-04-01T02:22:47;1.55;;;0.50;;
13590;SDS011;6866;50.778;7.206;2023-04-01T02:25:19;1.60;;;0.50;;
13590;SDS011;6866;50.778;7.206;2023-04-01T02:27:50;2.17;;;0.50;;
13590;SDS011;6866;50.778;7.206;2023-04-01T02:30:16;2.15;;;0.75;;
13590;SDS011;6866;50.778;7.206;2023-04-01T02:32:43;3.28;;;0.90;;
13590;SDS011;6866;50.778;7.206;2023-04-01T02:35:11;1.20;;;0.50;;
13590;SDS011;6866;50.778;7.206;2023-04-01T02:37:40;1.80;;;0.55;;
13590;SDS011;6866;50.778;7.206;2023-04-01T02:40:08;2.15;;;0.50;;
13590;SDS011;6866;50.778;7.206;2023-04-01T02:42:36;1.58;;;0.68;;
13590;SDS011;6866;50.778;7.206;2023-04-01T02:45:02;2.72;;;0.68;;
13590;SDS011;6866;50.778;7.206;2023-04-01T02:47:29;1.52;;;0.55;;
13590;SDS011;6866;50.778;7.206;2023-04-01T02:49:54;3.50;;;0.82;;
13590;SDS011;6866;50.778;7.206;2023-04-01T02:52:27;2.28;;;0.70;;
13590;SDS011;6866;50.778;7.206;2023-04-01T02:54:54;2.05;;;0.70;;
13590;SDS011;6866;50.778;7.206;2023-04-01T02:57:21;2.65;;;0.77;;
13590;SDS011;6866;50.778;7.206;2023-04-01T02:59:47;2.78;;;0.93;;
13590;SDS011;6866;50.778;7.206;2023-04-01T03:02:13;1.80;;;0.60;;
13590;SDS011;6866;50.778;7.206;2023-04-01T03:04:39;3.03;;;0.80;;
13590;SDS011;6866;50.778;7.206;2023-04-01T03:07:05;2.97;;;0.90;;
13590;SDS011;6866;50.778;7.206;2023-04-01T03:09:30;2.00;;;0.60;;
13590;SDS011;6866;50.778;7.206;2023-04-01T03:11:56;3.00;;;0.60;;
13590;SDS011;6866;50.778;7.206;2023-04-01T03:14:22;1.27;;;0.40;;
13590;SDS011;6866;50.778;7.206;2023-04-01T03:16:47;1.88;;;0.50;;
13590;SDS011;6866;50.778;7.206;2023-04-01T03:19:13;1.55;;;0.52;;
13590;SDS011;6866;50.778;7.206;2023-04-01T03:21:39;4.00;;;0.75;;
13590;SDS011;6866;50.778;7.206;2023-04-01T03:24:05;3.08;;;0.70;;
13590;SDS011;6866;50.778;7.206;2023-04-01T03:26:31;3.22;;;0.80;;
13590;SDS011;6866;50.778;7.206;2023-04-01T03:28:56;4.93;;;0.52;;
13590;SDS011;6866;50.778;7.206;2023-04-01T03:31:22;3.03;;;0.60;;
13590;SDS011;6866;50.778;7.206;2023-04-01T03:33:48;1.60;;;0.50;;
13590;SDS011;6866;50.778;7.206;2023-04-01T03:36:13;2.67;;;0.70;;
13590;SDS011;6866;50.778;7.206;2023-04-01T03:38:40;1.85;;;0.57;;
13590;SDS011;6866;50.778;7.206;2023-04-01T03:41:06;2.20;;;0.50;;
13590;SDS011;6866;50.778;7.206;2023-04-01T03:43:36;1.45;;;0.50;;
13590;SDS011;6866;50.778;7.206;2023-04-01T03:46:01;1.70;;;0.50;;
13590;SDS011;6866;50.778;7.206;2023-04-01T03:48:27;2.28;;;0.60;;
13590;SDS011;6866;50.778;7.206;2023-04-01T03:50:52;2.38;;;0.50;;
13590;SDS011;6866;50.778;7.206;2023-04-01T03:53:18;2.22;;;0.55;;
13590;SDS011;6866;50.778;7.206;2023-04-01T03:55:43;0.38;;;0.38;;
13590;SDS011;6866;50.778;7.206;2023-04-01T03:58:09;2.40;;;0.70;;
13590;SDS011;6866;50.778;7.206;2023-04-01T04:00:35;0.80;;;0.43;;
13590;SDS011;6866;50.778;7.206;2023-04-01T04:03:00;0.63;;;0.40;;
13590;SDS011;6866;50.778;7.206;2023-04-01T04:05:26;1.10;;;0.40;;
13590;SDS011;6866;50.778;7.206;2023-04-01T04:07:52;1.75;;;0.50;;
13590;SDS011;6866;50.778;7.206;2023-04-01T04:10:18;1.08;;;0.40;;
13590;SDS011;6866;50.778;7.206;2023-04-01T04:12:44;2.33;;;0.68;;
13590;SDS011;6866;50.778;7.206;2023-04-01T04:15:10;1.58;;;0.60;;
13590;SDS011;6866;50.778;7.206;2023-04-01T04:17:37;3.50;;;0.68;;
13590;SDS011;6866;50.778;7.206;2023-04-01T04:20:02;1.65;;;0.40;;
13590;SDS011;6866;50.778;7.206;2023-04-01T04:22:28;1.15;;;0.50;;
13590;SDS011;6866;50.778;7.206;2023-04-01T04:24:54;1.23;;;0.50;;
13590;SDS011;6866;50.778;7.206;2023-04-01T04:27:20;0.77;;;0.35;;
13590;SDS011;6866;50.778;7.206;2023-04-01T04:29:45;0.90;;;0.30;;
13590;SDS011;6866;50.778;7.206;2023-04-01T04:32:11;1.90;;;0.30;;
13590;SDS011;6866;50.778;7.206;2023-04-01T04:34:37;3.13;;;0.50;;
13590;SDS011;6866;50.778;7.206;2023-04-01T04:37:02;0.50;;;0.30;;
13590;SDS011;6866;50.778;7.206;2023-04-01T04:39:28;1.50;;;0.70;;
13590;SDS011;6866;50.778;7.206;2023-04-01T04:41:54;0.80;;;0.30;;
13590;SDS011;6866;50.778;7.206;2023-04-01T04:44:19;0.40;;;0.30;;
13590;SDS011;6866;50.778;7.206;2023-04-01T04:46:45;1.45;;;0.50;;
13590;SDS011;6866;50.778;7.206;2023-04-01T04:49:11;2.30;;;0.70;;
13590;SDS011;6866;50.778;7.206;2023-04-01T04:51:36;2.92;;;1.25;;
13590;SDS011;6866;50.778;7.206;2023-04-01T04:54:02;0.65;;;0.30;;
13590;SDS011;6866;50.778;7.206;2023-04-01T04:56:29;1.35;;;0.50;;
13590;SDS011;6866;50.778;7.206;2023-04-01T04:58:55;2.05;;;0.40;;
13590;SDS011;6866;50.778;7.206;2023-04-01T05:01:21;0.80;;;0.35;;
13590;SDS011;6866;50.778;7.206;2023-04-01T05:03:47;2.05;;;0.35;;
13590;SDS011;6866;50.778;7.206;2023-04-01T05:06:13;0.60;;;0.30;;
13590;SDS011;6866;50.778;7.206;2023-04-01T05:08:40;1.17;;;0.50;;
13590;SDS011;6866;50.778;7.206;2023-04-01T05:11:09;1.77;;;0.63;;
13590;SDS011;6866;50.778;7.206;2023-04-01T05:13:37;1.08;;;0.45;;
13590;SDS011;6866;50.778;7.206;2023-04-01T05:16:02;0.30;;;0.30;;
13590;SDS011;6866;50.778;7.206;2023-04-01T05:18:28;1.63;;;0.40;;
13590;SDS011;6866;50.778;7.206;2023-04-01T05:20:54;1.20;;;0.40;;
13590;SDS011;6866;50.778;7.206;2023-04-01T05:23:20;1.00;;;0.43;;
13590;SDS011;6866;50.778;7.206;2023-04-01T05:25:47;0.77;;;0.40;;
13590;SDS011;6866;50.778;7.206;2023-04-01T05:28:14;1.42;;;0.38;;
13590;SDS011;6866;50.778;7.206;2023-04-01T05:30:40;0.90;;;0.38;;
13590;SDS011;6866;50.778;7.206;2023-04-01T05:33:07;1.80;;;0.40;;
13590;SDS011;6866;50.778;7.206;2023-04-01T05:35:33;1.02;;;0.40;;
13590;SDS011;6866;50.778;7.206;2023-04-01T05:37:59;1.25;;;0.40;;
13590;SDS011;6866;50.778;7.206;2023-04-01T05:40:24;0.57;;;0.30;;
13590;SDS011;6866;50.778;7.206;2023-04-01T05:42:50;0.68;;;0.30;;
13590;SDS011;6866;50.778;7.206;2023-04-01T05:45:16;1.10;;;0.50;;
13590;SDS011;6866;50.778;7.206;2023-04-01T05:47:41;1.13;;;0.30;;
13590;SDS011;6866;50.778;7.206;2023-04-01T05:50:07;1.13;;;0.40;;
13590;SDS011;6866;50.778;7.206;2023-04-01T05:52:35;0.77;;;0.32;;
13590;SDS011;6866;50.778;7.206;2023-04-01T05:55:01;0.75;;;0.45;;
13590;SDS011;6866;50.778;7.206;2023-04-01T05:57:26;1.58;;;0.50;;
13590;SDS011;6866;50.778;7.206;2023-04-01T05:59:52;0.88;;;0.40;;
13590;SDS011;6866;50.778;7.206;2023-04-01T06:02:18;1.50;;;0.52;;
13590;SDS011;6866;50.778;7.206;2023-04-01T06:04:43;1.00;;;0.52;;
13590;SDS011;6866;50.778;7.206;2023-04-01T06:07:16;1.42;;;0.60;;
13590;SDS011;6866;50.778;7.206;2023-04-01T06:09:43;1.10;;;0.60;;
13590;SDS011;6866;50.778;7.206;2023-04-01T06:17:41;1.48;;;0.30;;
13590;SDS011;6866;50.778;7.206;2023-04-01T06:20:18;2.47;;;0.80;;
13590;SDS011;6866;50.778;7.206;2023-04-01T06:25:54;3.30;;;1.20;;
13590;SDS011;6866;50.778;7.206;2023-04-01T06:54:07;2.42;;;0.90;;
13590;SDS011;6866;50.778;7.206;2023-04-01T06:56:43;2.80;;;0.80;;
13590;SDS011;6866;50.778;7.206;2023-04-01T07:04:34;2.75;;;0.88;;
13590;SDS011;6866;50.778;7.206;2023-04-01T07:07:12;1.95;;;0.63;;
13590;SDS011;6866;50.778;7.206;2023-04-01T07:09:48;1.90;;;0.70;;
13590;SDS011;6866;50.778;7.206;2023-04-01T07:12:28;1.08;;;0.57;;
13590;SDS011;6866;50.778;7.206;2023-04-01T07:14:57;1.23;;;0.52;;
13590;SDS011;6866;50.778;7.206;2023-04-01T07:19:58;2.28;;;1.00;;
13590;SDS011;6866;50.778;7.206;2023-04-01T07:22:38;2.53;;;0.80;;
13590;SDS011;6866;50.778;7.206;2023-04-01T07:25:13;1.27;;;0.60;;
13590;SDS011;6866;50.778;7.206;2023-04-01T07:27:44;1.80;;;0.70;;
13590;SDS011;6866;50.778;7.206;2023-04-01T07:30:14;1.73;;;0.70;;
13590;SDS011;6866;50.778;7.206;2023-04-01T07:32:43;1.55;;;0.75;;
13590;SDS011;6866;50.778;7.206;2023-04-01T07:45:36;3.58;;;0.82;;
13590;SDS011;6866;50.778;7.206;2023-04-01T07:48:50;1.77;;;0.75;;
13590;SDS011;6866;50.778;7.206;2023-04-01T07:51:03;1.42;;;0.70;;
13590;SDS011;6866;50.778;7.206;2023-04-01T07:53:36;1.38;;;0.70;;
13590;SDS011;6866;50.778;7.206;2023-04-01T07:56:15;1.17;;;0.60;;
13590;SDS011;6866;50.778;7.206;2023-04-01T08:01:58;2.20;;;0.88;;
13590;SDS011;6866;50.778;7.206;2023-04-01T08:04:34;4.78;;;0.70;;
13590;SDS011;6866;50.778;7.206;2023-04-01T08:07:23;2.58;;;0.90;;
13590;SDS011;6866;50.778;7.206;2023-04-01T08:15:26;1.77;;;0.68;;
13590;SDS011;6866;50.778;7.206;2023-04-01T08:18:05;2.33;;;0.80;;
13590;SDS011;6866;50.778;7.206;2023-04-01T08:20:50;2.13;;;0.70;;
13590;SDS011;6866;50.778;7.206;2023-04-01T08:23:36;3.88;;;1.20;;
13590;SDS011;6866;50.778;7.206;2023-04-01T08:26:13;1.00;;;0.60;;
13590;SDS011;6866;50.778;7.206;2023-04-01T08:29:06;2.55;;;0.75;;
13590;SDS011;6866;50.778;7.206;2023-04-01T08:31:43;2.03;;;0.80;;
13590;SDS011;6866;50.778;7.206;2023-04-01T08:34:15;1.13;;;0.57;;
13590;SDS011;6866;50.778;7.206;2023-04-01T08:37:04;2.17;;;0.85;;
13590;SDS011;6866;50.778;7.206;2023-04-01T08:39:36;2.70;;;0.82;;
13590;SDS011;6866;50.778;7.206;2023-04-01T08:58:52;1.75;;;0.63;;
13590;SDS011;6866;50.778;7.206;2023-04-01T09:01:26;0.93;;;0.50;;
13590;SDS011;6866;50.778;7.206;2023-04-01T09:09:44;2.80;;;0.70;;
13590;SDS011;6866;50.778;7.206;2023-04-01T09:12:31;1.00;;;0.50;;
13590;SDS011;6866;50.778;7.206;2023-04-01T09:15:28;0.75;;;0.50;;
13590;SDS011;6866;50.778;7.206;2023-04-01T09:21:12;0.47;;;0.47;;
13590;SDS011;6866;50.778;7.206;2023-04-01T09:29:29;0.77;;;0.52;;
13590;SDS011;6866;50.778;7.206;2023-04-01T09:38:18;0.77;;;0.50;;
13590;SDS011;6866;50.778;7.206;2023-04-01T09:43:28;2.00;;;0.70;;
13590;SDS011;6866;50.778;7.206;2023-04-01T09:45:58;1.67;;;0.60;;
13590;SDS011;6866;50.778;7.206;2023-04-01T10:11:07;1.45;;;0.60;;
13590;SDS011;6866;50.778;7.206;2023-04-01T10:27:49;1.15;;;0.60;;
13590;SDS011;6866;50.778;7.206;2023-04-01T10:36:28;1.05;;;0.60;;
13590;SDS011;6866;50.778;7.206;2023-04-01T10:39:21;1.48;;;0.60;;
13590;SDS011;6866;50.778;7.206;2023-04-01T10:47:54;0.93;;;0.60;;
13590;SDS011;6866;50.778;7.206;2023-04-01T10:53:31;0.82;;;0.60;;
13590;SDS011;6866;50.778;7.206;2023-04-01T10:59:10;0.90;;;0.60;;
13590;SDS011;6866;50.778;7.206;2023-04-01T11:03:00;1.60;;;0.60;;
13590;SDS011;6866;50.778;7.206;2023-04-01T11:22:41;2.10;;;0.50;;
13590;SDS011;6866;50.778;7.206;2023-04-01T11:25:20;0.68;;;0.40;;
13590;SDS011;6866;50.778;7.206;2023-04-01T11:33:31;1.05;;;0.50;;
13590;SDS011;6866;50.778;7.206;2023-04-01T11:36:07;1.08;;;0.40;;
13590;SDS011;6866;50.778;7.206;2023-04-01T11:39:00;2.65;;;0.50;;
13590;SDS011;6866;50.778;7.206;2023-04-01T11:46:48;1.88;;;0.70;;
13590;SDS011;6866;50.778;7.206;2023-04-01T12:10:56;1.55;;;0.70;;
13590;SDS011;6866;50.778;7.206;2023-04-01T12:13:49;1.75;;;0.70;;
13590;SDS011;6866;50.778;7.206;2023-04-01T12:19:15;2.22;;;0.95;;
13590;SDS011;6866;50.778;7.206;2023-04-01T12:27:39;1.60;;;0.50;;
13590;SDS011;6866;50.778;7.206;2023-04-01T12:33:04;1.48;;;0.75;;
13590;SDS011;6866;50.778;7.206;2023-04-01T12:41:44;1.45;;;0.70;;
13590;SDS011;6866;50.778;7.206;2023-04-01T12:44:23;1.85;;;0.80;;
13590;SDS011;6866;50.778;7.206;2023-04-01T12:47:22;0.90;;;0.60;;
13590;SDS011;6866;50.778;7.206;2023-04-01T12:53:02;1.13;;;0.57;;
13590;SDS011;6866;50.778;7.206;2023-04-01T12:55:53;2.47;;;0.80;;
13590;SDS011;6866;50.778;7.206;2023-04-01T13:01:21;1.20;;;0.60;;
13590;SDS011;6866;50.778;7.206;2023-04-01T13:07:10;0.88;;;0.60;;
13590;SDS011;6866;50.778;7.206;2023-04-01T13:12:56;1.33;;;0.60;;
13590;SDS011;6866;50.778;7.206;2023-04-01T13:15:51;1.30;;;0.60;;
13590;SDS011;6866;50.778;7.206;2023-04-01T13:21:30;1.15;;;0.60;;
13590;SDS011;6866;50.778;7.206;2023-04-01T13:24:22;2.42;;;0.60;;
13590;SDS011;6866;50.778;7.206;2023-04-01T13:26:57;0.70;;;0.52;;
13590;SDS011;6866;50.778;7.206;2023-04-01T13:29:26;1.77;;;0.57;;
13590;SDS011;6866;50.778;7.206;2023-04-01T13:32:04;1.08;;;0.50;;
13590;SDS011;6866;50.778;7.206;2023-04-01T13:45:16;1.98;;;0.73;;
13590;SDS011;6866;50.778;7.206;2023-04-01T13:47:50;1.50;;;0.90;;
13590;SDS011;6866;50.778;7.206;2023-04-01T13:50:52;2.35;;;0.90;;
13590;SDS011;6866;50.778;7.206;2023-04-01T13:56:21;1.58;;;0.70;;
13590;SDS011;6866;50.778;7.206;2023-04-01T14:01:44;1.48;;;0.65;;
13590;SDS011;6866;50.778;7.206;2023-04-01T14:09:58;1.25;;;0.70;;
13590;SDS011;6866;50.778;7.206;2023-04-01T14:12:42;1.10;;;0.60;;
13590;SDS011;6866;50.778;7.206;2023-04-01T14:15:34;1.38;;;0.93;;
13590;SDS011;6866;50.778;7.206;2023-04-01T14:18:19;1.77;;;0.60;;
13590;SDS011;6866;50.778;7.206;2023-04-01T14:23:43;1.30;;;0.80;;
13590;SDS011;6866;50.778;7.206;2023-04-01T14:31:52;2.20;;;1.00;;
13590;SDS011;6866;50.778;7.206;2023-04-01T14:50:49;2.80;;;1.08;;
13590;SDS011;6866;50.778;7.206;2023-04-01T14:53:26;1.95;;;0.90;;
13590;SDS011;6866;50.778;7.206;2023-04-01T14:55:55;1.70;;;0.90;;
13590;SDS011;6866;50.778;7.206;2023-04-01T14:58:23;2.35;;;1.00;;
13590;SDS011;6866;50.778;7.206;2023-04-01T15:00:58;2.92;;;0.90;;
13590;SDS011;6866;50.778;7.206;2023-04-01T15:03:30;1.88;;;0.90;;
13590;SDS011;6866;50.778;7.206;2023-04-01T15:06:12;2.58;;;1.20;;
13590;SDS011;6866;50.778;7.206;2023-04-01T15:08:56;1.80;;;0.80;;
13590;SDS011;6866;50.778;7.206;2023-04-01T15:11:45;2.20;;;0.73;;
13590;SDS011;6866;50.778;7.206;2023-04-01T15:17:22;1.83;;;1.00;;
13590;SDS011;6866;50.778;7.206;2023-04-01T15:20:25;3.67;;;0.95;;
13590;SDS011;6866;50.778;7.206;2023-04-01T15:23:10;1.58;;;0.77;;
13590;SDS011;6866;50.778;7.206;2023-04-01T15:34:15;1.70;;;0.90;;
13590;SDS011;6866;50.778;7.206;2023-04-01T15:45:06;1.48;;;0.70;;
13590;SDS011;6866;50.778;7.206;2023-04-01T15:47:35;2.22;;;0.90;;
13590;SDS011;6866;50.778;7.206;2023-04-01T16:12:53;2.60;;;1.45;;
13590;SDS011;6866;50.778;7.206;2023-04-01T16:15:20;2.22;;;1.13;;
13590;SDS011;6866;50.778;7.206;2023-04-01T16:20:53;3.05;;;1.40;;
13590;SDS011;6866;50.778;7.206;2023-04-01T16:23:39;3.95;;;1.95;;
13590;SDS011;6866;50.778;7.206;2023-04-01T16:26:15;3.92;;;1.40;;
13590;SDS011;6866;50.778;7.206;2023-04-01T16:28:54;3.10;;;1.50;;
13590;SDS011;6866;50.778;7.206;2023-04-01T16:37:31;3.67;;;1.60;;
13590;SDS011;6866;50.778;7.206;2023-04-01T16:42:56;2.78;;;1.55;;
13590;SDS011;6866;50.778;7.206;2023-04-01T16:45:46;2.83;;;1.63;;
13590;SDS011;6866;50.778;7.206;2023-04-01T16:48:20;2.70;;;1.40;;
13590;SDS011;6866;50.778;7.206;2023-04-01T16:50:59;2.40;;;1.50;;
13590;SDS011;6866;50.778;7.206;2023-04-01T16:53:42;3.45;;;1.77;;
13590;SDS011;6866;50.778;7.206;2023-04-01T16:56:11;3.03;;;1.70;;
13590;SDS011;6866;50.778;7.206;2023-04-01T16:59:07;3.30;;;1.80;;
13590;SDS011;6866;50.778;7.206;2023-04-01T17:01:47;3.92;;;1.70;;
13590;SDS011;6866;50.778;7.206;2023-04-01T17:04:29;3.20;;;1.73;;
13590;SDS011;6866;50.778;7.206;2023-04-01T17:12:30;2.50;;;1.38;;
13590;SDS011;6866;50.778;7.206;2023-04-01T17:28:02;4.03;;;1.27;;
13590;SDS011;6866;50.778;7.206;2023-04-01T17:33:30;2.53;;;1.33;;
13590;SDS011;6866;50.778;7.206;2023-04-01T17:36:26;2.33;;;1.35;;
13590;SDS011;6866;50.778;7.206;2023-04-01T17:44:32;2.53;;;1.30;;
13590;SDS011;6866;50.778;7.206;2023-04-01T18:01:23;4.93;;;1.20;;
13590;SDS011;6866;50.778;7.206;2023-04-01T18:12:04;2.08;;;1.17;;
13590;SDS011;6866;50.778;7.206;2023-04-01T18:14:50;2.60;;;1.48;;
13590;SDS011;6866;50.778;7.206;2023-04-01T18:20:19;2.50;;;1.40;;
13590;SDS011;6866;50.778;7.206;2023-04-01T18:22:56;3.42;;;1.40;;
13590;SDS011;6866;50.778;7.206;2023-04-01T18:25:43;2.75;;;1.67;;
13590;SDS011;6866;50.778;7.206;2023-04-01T18:31:17;3.00;;;1.52;;
13590;SDS011;6866;50.778;7.206;2023-04-01T18:39:13;3.40;;;1.98;;
13590;SDS011;6866;50.778;7.206;2023-04-01T18:42:06;3.00;;;1.90;;
13590;SDS011;6866;50.778;7.206;2023-04-01T18:44:53;3.72;;;1.73;;
13590;SDS011;6866;50.778;7.206;2023-04-01T18:50:41;3.20;;;1.55;;
13590;SDS011;6866;50.778;7.206;2023-04-01T18:56:31;3.30;;;1.70;;
13590;SDS011;6866;50.778;7.206;2023-04-01T19:04:37;2.50;;;1.50;;
13590;SDS011;6866;50.778;7.206;2023-04-01T19:13:11;2.97;;;1.80;;
13590;SDS011;6866;50.778;7.206;2023-04-01T19:16:05;3.27;;;2.00;;
13590;SDS011;6866;50.778;7.206;2023-04-01T19:21:41;2.85;;;1.95;;
13590;SDS011;6866;50.778;7.206;2023-04-01T19:43:38;4.13;;;2.78;;
13590;SDS011;6866;50.778;7.206;2023-04-01T19:46:19;4.22;;;2.65;;
13590;SDS011;6866;50.778;7.206;2023-04-01T19:51:59;6.53;;;3.65;;
13590;SDS011;6866;50.778;7.206;2023-04-01T19:59:37;4.40;;;3.15;;
13590;SDS011;6866;50.778;7.206;2023-04-01T20:02:26;5.13;;;3.03;;
13590;SDS011;6866;50.778;7.206;2023-04-01T20:04:53;4.28;;;2.97;;
13590;SDS011;6866;50.778;7.206;2023-04-01T20:07:37;4.95;;;3.00;;
13590;SDS011;6866;50.778;7.206;2023-04-01T20:10:22;4.20;;;3.28;;
13590;SDS011;6866;50.778;7.206;2023-04-01T20:18:05;4.53;;;2.95;;
13590;SDS011;6866;50.778;7.206;2023-04-01T20:20:37;4.97;;;3.25;;
13590;SDS011;6866;50.778;7.206;2023-04-01T20:25:52;4.25;;;2.80;;
13590;SDS011;6866;50.778;7.206;2023-04-01T20:28:25;5.50;;;2.95;;
13590;SDS011;6866;50.778;7.206;2023-04-01T20:39:55;3.78;;;2.47;;
13590;SDS011;6866;50.778;7.206;2023-04-01T20:48:17;3.10;;;2.17;;
13590;SDS011;6866;50.778;7.206;2023-04-01T20:50:59;3.42;;;2.00;;
13590;SDS011;6866;50.778;7.206;2023-04-01T20:53:34;3.15;;;1.95;;
13590;SDS011;6866;50.778;7.206;2023-04-01T20:58:46;2.65;;;1.63;;
13590;SDS011;6866;50.778;7.206;2023-04-01T21:04:41;4.80;;;1.92;;
13590;SDS011;6866;50.778;7.206;2023-04-01T21:07:20;3.65;;;2.00;;
13590;SDS011;6866;50.778;7.206;2023-04-01T21:12:46;2.92;;;1.90;;
13590;SDS011;6866;50.778;7.206;2023-04-01T21:15:43;2.75;;;1.67;;
13590;SDS011;6866;50.778;7.206;2023-04-01T21:21:18;5.45;;;2.90;;
13590;SDS011;6866;50.778;7.206;2023-04-01T21:34:48;6.67;;;2.70;;
13590;SDS011;6866;50.778;7.206;2023-04-01T21:37:25;4.78;;;2.25;;
13590;SDS011;6866;50.778;7.206;2023-04-01T21:40:25;2.80;;;1.70;;
13590;SDS011;6866;50.778;7.206;2023-04-01T22:00:23;4.15;;;2.05;;
13590;SDS011;6866;50.778;7.206;2023-04-01T22:06:02;3.65;;;1.90;;
13590;SDS011;6866;50.778;7.206;2023-04-01T22:11:31;2.45;;;1.40;;
13590;SDS011;6866;50.778;7.206;2023-04-01T22:16:57;3.88;;;1.70;;
13590;SDS011;6866;50.778;7.206;2023-04-01T22:30:24;3.00;;;1.13;;
13590;SDS011;6866;50.778;7.206;2023-04-01T22:32:59;1.75;;;1.08;;
13590;SDS011;6866;50.778;7.206;2023-04-01T22:39:24;3.40;;;1.20;;
13590;SDS011;6866;50.778;7.206;2023-04-01T22:44:34;5.43;;;1.33;;
13590;SDS011;6866;50.778;7.206;2023-04-01T22:49:58;5.47;;;1.63;;
13590;SDS011;6866;50.778;7.206;2023-04-01T22:52:42;2.50;;;1.40;;
13590;SDS011;6866;50.778;7.206;2023-04-01T23:00:35;2.92;;;1.40;;
13590;SDS011;6866;50.778;7.206;2023-04-01T23:05:50;5.75;;;1.80;;
13590;SDS011;6866;50.778;7.206;2023-04-01T23:11:28;3.42;;;1.73;;
13590;SDS011;6866;50.778;7.206;2023-04-01T23:16:43;3.92;;;1.50;;
13590;SDS011;6866;50.778;7.206;2023-04-01T23:19:24;3.45;;;1.90;;
13590;SDS011;6866;50.778;7.206;2023-04-01T23:24:33;2.83;;;1.45;;
13590;SDS011;6866;50.778;7.206;2023-04-01T23:33:22;4.72;;;1.52;;
13590;SDS011;6866;50.778;7.206;2023-04-01T23:35:56;2.55;;;1.40;;
13590;SDS011;6866;50.778;7.206;2023-04-01T23:38:32;4.07;;;1.60;;
13590;SDS011;6866;50.778;7.206;2023-04-01T23:41:01;3.25;;;1.80;;
13590;SDS011;6866;50.778;7.206;2023-04-01T23:43:35;4.20;;;1.95;;
13590;SDS011;6866;50.778;7.206;2023-04-01T23:46:03;3.88;;;2.10;;
13590;SDS011;6866;50.778;7.206;2023-04-01T23:48:33;3.60;;;1.88;;
13590;SDS011;6866;50.778;7.206;2023-04-01T23:51:05;3.17;;;1.77;;
13590;SDS011;6866;50.778;7.206;2023-04-01T23:53:42;2.85;;;1.85;;
13590;SDS011;6866;50.778;7.206;2023-04-01T23:56:10;4.65;;;1.90;;
13590;SDS011;6866;50.778;7.206;2023-04-01T23:58:44;3.95;;;2.30;;
